sensor_id;sensor_type;location;lat;lon;timestamp;pressure;altitude;pressure_sealevel;temperature;humidity
17615;BME280;8926;49.720;6.576;2023-04-24T00:02:24;98525.09;;;11.97;85.85
17615;BME280;8926;49.720;6.576;2023-04-24T00:04:50;98520.13;;;11.94;85.82
17615;BME280;8926;49.720;6.576;2023-04-24T00:07:16;98508.97;;;11.92;86.52
17615;BME280;8926;49.720;6.576;2023-04-24T00:09:42;98506.34;;;11.92;86.94
17615;BME280;8926;49.720;6.576;2023-04-24T00:12:08;98501.13;;;11.92;87.65
17615;BME280;8926;49.720;6.576;2023-04-24T00:14:33;98512.97;;;11.96;87.75
17615;BME280;8926;49.720;6.576;2023-04-24T00:17:00;98510.81;;;12.01;88.20
17615;BME280;8926;49.720;6.576;2023-04-24T00:19:26;98508.91;;;12.03;86.84
17615;BME280;8926;49.720;6.576;2023-04-24T00:21:52;98513.31;;;12.03;86.51
17615;BME280;8926;49.720;6.576;2023-04-24T00:24:17;98516.03;;;12.01;86.39
17615;BME280;8926;49.720;6.576;2023-04-24T00:26:43;98523.19;;;11.99;86.51
17615;BME280;8926;49.720;6.576;2023-04-24T00:29:08;98517.94;;;11.99;86.19
17615;BME280;8926;49.720;6.576;2023-04-24T00:31:34;98506.34;;;11.92;86.28
17615;BME280;8926;49.720;6.576;2023-04-24T00:34:03;98514.69;;;11.86;87.41
17615;BME280;8926;49.720;6.576;2023-04-24T00:36:28;98527.91;;;11.84;87.67
17615;BME280;8926;49.720;6.576;2023-04-24T00:38:54;98529.94;;;11.81;87.33
17615;BME280;8926;49.720;6.576;2023-04-24T00:41:20;98526.47;;;11.80;87.26
17615;BME280;8926;49.720;6.576;2023-04-24T00:43:46;98521.38;;;11.79;86.78
17615;BME280;8926;49.720;6.576;2023-04-24T00:46:12;98526.59;;;11.79;86.41
17615;BME280;8926;49.720;6.576;2023-04-24T00:48:39;98525.41;;;11.72;87.48
17615;BME280;8926;49.720;6.576;2023-04-24T00:51:04;98529.81;;;11.71;86.63
17615;BME280;8926;49.720;6.576;2023-04-24T00:53:29;98520.81;;;11.64;87.05
17615;BME280;8926;49.720;6.576;2023-04-24T00:55:55;98522.13;;;11.59;86.85
17615;BME280;8926;49.720;6.576;2023-04-24T00:58:22;98525.00;;;11.55;86.95
17615;BME280;8926;49.720;6.576;2023-04-24T01:00:48;98528.78;;;11.51;87.15
17615;BME280;8926;49.720;6.576;2023-04-24T01:03:15;98538.44;;;11.51;87.38
17615;BME280;8926;49.720;6.576;2023-04-24T01:05:41;98536.16;;;11.46;86.62
17615;BME280;8926;49.720;6.576;2023-04-24T01:08:07;98543.31;;;11.44;86.02
17615;BME280;8926;49.720;6.576;2023-04-24T01:10:40;98538.13;;;11.33;86.27
17615;BME280;8926;49.720;6.576;2023-04-24T01:13:07;98544.28;;;11.32;86.40
17615;BME280;8926;49.720;6.576;2023-04-24T01:15:33;98543.59;;;11.30;85.89
17615;BME280;8926;49.720;6.576;2023-04-24T01:17:58;98540.25;;;11.28;86.70
17615;BME280;8926;49.720;6.576;2023-04-24T01:20:24;98530.50;;;11.30;86.30
17615;BME280;8926;49.720;6.576;2023-04-24T01:22:51;98539.91;;;11.33;85.98
17615;BME280;8926;49.720;6.576;2023-04-24T01:25:16;98544.19;;;11.34;85.51
17615;BME280;8926;49.720;6.576;2023-04-24T01:27:42;98532.41;;;11.28;85.21
17615;BME280;8926;49.720;6.576;2023-04-24T01:30:08;98529.31;;;11.23;85.32
17615;BME280;8926;49.720;6.576;2023-04-24T01:32:34;98524.09;;;11.23;85.88
17615;BME280;8926;49.720;6.576;2023-04-24T01:35:00;98524.09;;;11.23;85.19
17615;BME280;8926;49.720;6.576;2023-04-24T01:37:26;98526.00;;;11.21;84.43
17615;BME280;8926;49.720;6.576;2023-04-24T01:39:51;98536.69;;;11.18;84.39
17615;BME280;8926;49.720;6.576;2023-04-24T01:42:17;98533.63;;;11.13;84.44
17615;BME280;8926;49.720;6.576;2023-04-24T01:44:43;98544.31;;;11.10;84.54
17615;BME280;8926;49.720;6.576;2023-04-24T01:47:08;98548.13;;;11.06;84.32
17615;BME280;8926;49.720;6.576;2023-04-24T01:49:34;98557.63;;;11.07;83.90
17615;BME280;8926;49.720;6.576;2023-04-24T01:51:59;98563.81;;;11.06;83.50
17615;BME280;8926;49.720;6.576;2023-04-24T01:54:24;98566.75;;;11.01;83.78
17615;BME280;8926;49.720;6.576;2023-04-24T01:56:50;98571.16;;;11.01;83.44
17615;BME280;8926;49.720;6.576;2023-04-24T01:59:17;98581.84;;;10.98;83.59
17615;BME280;8926;49.720;6.576;2023-04-24T02:01:42;98585.41;;;10.97;83.25
17615;BME280;8926;49.720;6.576;2023-04-24T02:04:08;98594.06;;;10.97;82.52
17615;BME280;8926;49.720;6.576;2023-04-24T02:06:34;98598.00;;;10.92;82.20
17615;BME280;8926;49.720;6.576;2023-04-24T02:08:59;98603.22;;;10.92;82.28
17615;BME280;8926;49.720;6.576;2023-04-24T02:11:25;98603.22;;;10.92;82.41
17615;BME280;8926;49.720;6.576;2023-04-24T02:13:51;98608.94;;;10.85;81.70
17615;BME280;8926;49.720;6.576;2023-04-24T02:16:17;98615.81;;;10.86;81.94
17615;BME280;8926;49.720;6.576;2023-04-24T02:18:42;98613.31;;;10.85;81.51
17615;BME280;8926;49.720;6.576;2023-04-24T02:21:07;98613.09;;;10.88;82.18
17615;BME280;8926;49.720;6.576;2023-04-24T02:23:33;98609.53;;;10.89;81.72
17615;BME280;8926;49.720;6.576;2023-04-24T02:25:58;98599.31;;;10.86;81.39
17615;BME280;8926;49.720;6.576;2023-04-24T02:28:23;98595.97;;;10.84;81.01
17615;BME280;8926;49.720;6.576;2023-04-24T02:30:49;98611.06;;;10.80;81.40
17615;BME280;8926;49.720;6.576;2023-04-24T02:33:15;98616.50;;;10.77;81.12
17615;BME280;8926;49.720;6.576;2023-04-24T02:35:40;98617.19;;;10.68;81.37
17615;BME280;8926;49.720;6.576;2023-04-24T02:38:06;98617.66;;;10.62;81.82
17615;BME280;8926;49.720;6.576;2023-04-24T02:40:31;98610.28;;;10.56;81.86
17615;BME280;8926;49.720;6.576;2023-04-24T02:42:57;98616.69;;;10.52;81.77
17615;BME280;8926;49.720;6.576;2023-04-24T02:45:22;98622.03;;;10.50;81.72
17615;BME280;8926;49.720;6.576;2023-04-24T02:47:47;98623.31;;;10.45;82.61
17615;BME280;8926;49.720;6.576;2023-04-24T02:50:13;98631.84;;;10.36;82.52
17615;BME280;8926;49.720;6.576;2023-04-24T02:52:38;98633.94;;;10.31;83.22
17615;BME280;8926;49.720;6.576;2023-04-24T02:55:04;98637.28;;;10.33;83.19
17615;BME280;8926;49.720;6.576;2023-04-24T02:57:29;98635.38;;;10.35;83.47
17615;BME280;8926;49.720;6.576;2023-04-24T02:59:55;98642.50;;;10.33;81.76
17615;BME280;8926;49.720;6.576;2023-04-24T03:02:20;98652.22;;;10.31;81.93
17615;BME280;8926;49.720;6.576;2023-04-24T03:04:46;98657.22;;;10.34;83.10
17615;BME280;8926;49.720;6.576;2023-04-24T03:07:13;98649.16;;;10.37;82.76
17615;BME280;8926;49.720;6.576;2023-04-24T03:09:39;98648.22;;;10.38;82.62
17615;BME280;8926;49.720;6.576;2023-04-24T03:12:05;98644.88;;;10.36;82.35
17615;BME280;8926;49.720;6.576;2023-04-24T03:14:30;98644.88;;;10.36;82.79
17615;BME280;8926;49.720;6.576;2023-04-24T03:16:56;98654.13;;;10.40;82.36
17615;BME280;8926;49.720;6.576;2023-04-24T03:19:21;98652.50;;;10.39;81.34
17615;BME280;8926;49.720;6.576;2023-04-24T03:21:47;98650.56;;;10.41;82.17
17615;BME280;8926;49.720;6.576;2023-04-24T03:24:12;98659.13;;;10.43;82.49
17615;BME280;8926;49.720;6.576;2023-04-24T03:26:37;98662.69;;;10.42;82.82
17615;BME280;8926;49.720;6.576;2023-04-24T03:29:03;98664.34;;;10.43;83.07
17615;BME280;8926;49.720;6.576;2023-04-24T03:31:28;98654.97;;;10.40;83.27
17615;BME280;8926;49.720;6.576;2023-04-24T03:33:53;98663.78;;;10.39;82.77
17615;BME280;8926;49.720;6.576;2023-04-24T03:36:19;98673.13;;;10.42;83.08
17615;BME280;8926;49.720;6.576;2023-04-24T03:38:44;98666.03;;;10.44;82.84
17615;BME280;8926;49.720;6.576;2023-04-24T03:41:10;98660.34;;;10.50;82.33
17615;BME280;8926;49.720;6.576;2023-04-24T03:43:35;98659.75;;;10.46;81.43
17615;BME280;8926;49.720;6.576;2023-04-24T03:46:01;98657.03;;;10.48;81.94
17615;BME280;8926;49.720;6.576;2023-04-24T03:48:26;98653.69;;;10.46;80.98
17615;BME280;8926;49.720;6.576;2023-04-24T03:50:51;98658.41;;;10.41;81.85
17615;BME280;8926;49.720;6.576;2023-04-24T03:53:17;98662.78;;;10.40;82.08
17615;BME280;8926;49.720;6.576;2023-04-24T03:55:42;98661.00;;;10.41;82.54
17615;BME280;8926;49.720;6.576;2023-04-24T03:58:07;98666.50;;;10.38;81.26
17615;BME280;8926;49.720;6.576;2023-04-24T04:00:32;98663.38;;;10.33;82.12
17615;BME280;8926;49.720;6.576;2023-04-24T04:02:58;98670.50;;;10.31;82.65
17615;BME280;8926;49.720;6.576;2023-04-24T04:05:23;98671.00;;;10.36;83.25
17615;BME280;8926;49.720;6.576;2023-04-24T04:07:49;98675.84;;;10.40;82.62
17615;BME280;8926;49.720;6.576;2023-04-24T04:10:14;98671.97;;;10.46;82.59
17615;BME280;8926;49.720;6.576;2023-04-24T04:12:39;98664.13;;;10.46;82.21
17615;BME280;8926;49.720;6.576;2023-04-24T04:15:05;98673.53;;;10.48;81.15
17615;BME280;8926;49.720;6.576;2023-04-24T04:17:31;98675.19;;;10.49;81.39
17615;BME280;8926;49.720;6.576;2023-04-24T04:19:57;98676.25;;;10.47;81.05
17615;BME280;8926;49.720;6.576;2023-04-24T04:22:22;98668.38;;;10.36;81.18
17615;BME280;8926;49.720;6.576;2023-04-24T04:24:47;98682.81;;;10.29;80.91
17615;BME280;8926;49.720;6.576;2023-04-24T04:27:13;98686.59;;;10.25;81.87
17615;BME280;8926;49.720;6.576;2023-04-24T04:29:38;98688.69;;;10.19;82.15
17615;BME280;8926;49.720;6.576;2023-04-24T04:32:05;98685.31;;;10.17;81.81
17615;BME280;8926;49.720;6.576;2023-04-24T04:34:31;98694.31;;;10.13;82.72
17615;BME280;8926;49.720;6.576;2023-04-24T04:36:56;98701.19;;;10.14;82.24
17615;BME280;8926;49.720;6.576;2023-04-24T04:39:24;98701.19;;;10.14;82.23
17615;BME280;8926;49.720;6.576;2023-04-24T04:41:49;98703.09;;;10.12;83.17
17615;BME280;8926;49.720;6.576;2023-04-24T04:44:15;98701.44;;;10.11;81.73
17615;BME280;8926;49.720;6.576;2023-04-24T04:46:41;98705.63;;;10.01;82.49
17615;BME280;8926;49.720;6.576;2023-04-24T04:49:07;98708.34;;;10.00;82.16
17615;BME280;8926;49.720;6.576;2023-04-24T04:51:34;98709.91;;;10.02;82.24
17615;BME280;8926;49.720;6.576;2023-04-24T04:53:59;98716.28;;;9.98;82.61
17615;BME280;8926;49.720;6.576;2023-04-24T04:56:25;98718.38;;;10.06;82.65
17615;BME280;8926;49.720;6.576;2023-04-24T04:58:50;98715.66;;;10.07;82.55
17615;BME280;8926;49.720;6.576;2023-04-24T05:01:16;98720.66;;;10.10;81.68
17615;BME280;8926;49.720;6.576;2023-04-24T05:03:41;98723.47;;;10.07;82.37
17615;BME280;8926;49.720;6.576;2023-04-24T05:06:06;98734.97;;;10.05;82.31
17615;BME280;8926;49.720;6.576;2023-04-24T05:08:32;98745.28;;;10.06;81.27
17615;BME280;8926;49.720;6.576;2023-04-24T05:10:57;98741.75;;;10.07;82.73
17615;BME280;8926;49.720;6.576;2023-04-24T05:13:22;98741.28;;;10.13;81.30
17615;BME280;8926;49.720;6.576;2023-04-24T05:15:48;98745.34;;;10.17;81.61
17615;BME280;8926;49.720;6.576;2023-04-24T05:18:13;98745.47;;;10.29;81.67
17615;BME280;8926;49.720;6.576;2023-04-24T05:20:38;98748.59;;;10.34;80.93
17615;BME280;8926;49.720;6.576;2023-04-24T05:23:04;98746.69;;;10.36;80.50
17615;BME280;8926;49.720;6.576;2023-04-24T05:25:29;98753.13;;;10.43;80.58
17615;BME280;8926;49.720;6.576;2023-04-24T05:27:57;98752.41;;;10.88;79.20
17615;BME280;8926;49.720;6.576;2023-04-24T05:30:22;98744.72;;;11.78;76.70
17615;BME280;8926;49.720;6.576;2023-04-24T05:32:47;98747.34;;;11.67;75.37
17615;BME280;8926;49.720;6.576;2023-04-24T05:35:13;98754.78;;;11.49;75.98
17615;BME280;8926;49.720;6.576;2023-04-24T05:37:38;98763.91;;;11.32;75.40
17615;BME280;8926;49.720;6.576;2023-04-24T05:40:04;98757.69;;;11.11;75.43
17615;BME280;8926;49.720;6.576;2023-04-24T05:42:31;98754.63;;;10.82;76.50
17615;BME280;8926;49.720;6.576;2023-04-24T05:44:56;98752.06;;;10.69;77.06
17615;BME280;8926;49.720;6.576;2023-04-24T05:47:21;98766.03;;;10.57;77.35
17615;BME280;8926;49.720;6.576;2023-04-24T05:49:47;98768.56;;;10.46;78.21
17615;BME280;8926;49.720;6.576;2023-04-24T05:52:12;98776.03;;;10.39;79.44
17615;BME280;8926;49.720;6.576;2023-04-24T05:54:38;98777.34;;;10.45;78.58
17615;BME280;8926;49.720;6.576;2023-04-24T05:57:03;98782.03;;;10.52;79.16
17615;BME280;8926;49.720;6.576;2023-04-24T05:59:33;98790.19;;;10.48;78.73
17615;BME280;8926;49.720;6.576;2023-04-24T06:01:58;98793.00;;;10.45;78.03
17615;BME280;8926;49.720;6.576;2023-04-24T06:04:23;98802.69;;;10.32;78.09
17615;BME280;8926;49.720;6.576;2023-04-24T06:06:48;98796.22;;;10.25;79.21
17615;BME280;8926;49.720;6.576;2023-04-24T06:09:16;98812.25;;;10.18;78.61
17615;BME280;8926;49.720;6.576;2023-04-24T06:11:42;98806.03;;;10.08;79.22
17615;BME280;8926;49.720;6.576;2023-04-24T06:14:08;98803.75;;;10.04;78.98
17615;BME280;8926;49.720;6.576;2023-04-24T06:16:33;98802.91;;;10.03;79.58
17615;BME280;8926;49.720;6.576;2023-04-24T06:18:58;98802.38;;;9.98;79.83
17615;BME280;8926;49.720;6.576;2023-04-24T06:21:24;98819.41;;;9.91;80.56
17615;BME280;8926;49.720;6.576;2023-04-24T06:23:49;98826.09;;;9.82;81.07
17615;BME280;8926;49.720;6.576;2023-04-24T06:26:15;98825.06;;;9.85;81.22
17615;BME280;8926;49.720;6.576;2023-04-24T06:28:40;98821.72;;;9.83;81.11
17615;BME280;8926;49.720;6.576;2023-04-24T06:31:05;98814.31;;;9.77;81.22
17615;BME280;8926;49.720;6.576;2023-04-24T06:33:30;98815.78;;;9.81;81.54
17615;BME280;8926;49.720;6.576;2023-04-24T06:35:56;98822.88;;;9.79;81.22
17615;BME280;8926;49.720;6.576;2023-04-24T06:38:21;98828.41;;;9.87;81.30
17615;BME280;8926;49.720;6.576;2023-04-24T06:40:46;98833.19;;;9.93;81.73
17615;BME280;8926;49.720;6.576;2023-04-24T06:43:12;98828.69;;;9.95;80.70
17615;BME280;8926;49.720;6.576;2023-04-24T06:45:38;98831.50;;;9.92;80.67
17615;BME280;8926;49.720;6.576;2023-04-24T06:48:04;98840.47;;;9.88;81.22
17615;BME280;8926;49.720;6.576;2023-04-24T06:50:30;98838.41;;;9.80;80.78
17615;BME280;8926;49.720;6.576;2023-04-24T06:52:55;98847.16;;;9.67;81.43
17615;BME280;8926;49.720;6.576;2023-04-24T06:55:21;98836.50;;;9.70;81.63
17615;BME280;8926;49.720;6.576;2023-04-24T06:57:46;98839.13;;;9.70;81.80
17615;BME280;8926;49.720;6.576;2023-04-24T07:00:12;98841.31;;;9.76;81.05
17615;BME280;8926;49.720;6.576;2023-04-24T07:02:37;98843.19;;;9.74;81.04
17615;BME280;8926;49.720;6.576;2023-04-24T07:05:04;98845.06;;;9.72;81.97
17615;BME280;8926;49.720;6.576;2023-04-24T07:07:29;98846.22;;;9.68;81.57
17615;BME280;8926;49.720;6.576;2023-04-24T07:09:56;98844.84;;;9.62;82.85
17615;BME280;8926;49.720;6.576;2023-04-24T07:12:21;98850.91;;;9.63;83.12
17615;BME280;8926;49.720;6.576;2023-04-24T07:14:47;98850.69;;;9.66;83.30
17615;BME280;8926;49.720;6.576;2023-04-24T07:17:13;98852.56;;;9.64;83.70
17615;BME280;8926;49.720;6.576;2023-04-24T07:19:38;98858.22;;;9.58;83.74
17615;BME280;8926;49.720;6.576;2023-04-24T07:22:03;98860.09;;;9.56;84.52
17615;BME280;8926;49.720;6.576;2023-04-24T07:24:29;98861.75;;;9.57;84.00
17615;BME280;8926;49.720;6.576;2023-04-24T07:26:57;98860.50;;;9.62;84.12
17615;BME280;8926;49.720;6.576;2023-04-24T07:29:22;98869.69;;;9.68;84.42
17615;BME280;8926;49.720;6.576;2023-04-24T07:31:47;98869.88;;;9.65;84.65
17615;BME280;8926;49.720;6.576;2023-04-24T07:34:13;98869.28;;;9.61;84.65
17615;BME280;8926;49.720;6.576;2023-04-24T07:36:38;98873.66;;;9.61;84.91
17615;BME280;8926;49.720;6.576;2023-04-24T07:39:06;98877.72;;;9.65;85.12
17615;BME280;8926;49.720;6.576;2023-04-24T07:41:33;98875.72;;;9.68;85.08
17615;BME280;8926;49.720;6.576;2023-04-24T07:43:58;98883.75;;;9.65;84.73
17615;BME280;8926;49.720;6.576;2023-04-24T07:46:24;98878.88;;;9.61;85.79
17615;BME280;8926;49.720;6.576;2023-04-24T07:48:49;98892.63;;;9.63;85.63
17615;BME280;8926;49.720;6.576;2023-04-24T07:51:15;98897.84;;;9.63;86.12
17615;BME280;8926;49.720;6.576;2023-04-24T07:53:41;98893.69;;;9.73;85.80
17615;BME280;8926;49.720;6.576;2023-04-24T07:56:07;98889.09;;;9.76;85.45
17615;BME280;8926;49.720;6.576;2023-04-24T07:58:32;98882.00;;;9.78;85.66
17615;BME280;8926;49.720;6.576;2023-04-24T08:00:58;98894.56;;;9.86;86.40
17615;BME280;8926;49.720;6.576;2023-04-24T08:03:23;98896.41;;;9.97;85.63
17615;BME280;8926;49.720;6.576;2023-04-24T08:05:49;98898.72;;;10.01;85.53
17615;BME280;8926;49.720;6.576;2023-04-24T08:08:16;98902.25;;;10.00;85.44
17615;BME280;8926;49.720;6.576;2023-04-24T08:10:41;98895.16;;;10.02;85.44
17615;BME280;8926;49.720;6.576;2023-04-24T08:13:06;98896.75;;;10.05;84.82
17615;BME280;8926;49.720;6.576;2023-04-24T08:15:32;98903.72;;;10.04;84.97
17615;BME280;8926;49.720;6.576;2023-04-24T08:17:57;98906.66;;;10.12;84.83
17615;BME280;8926;49.720;6.576;2023-04-24T08:20:22;98901.88;;;10.19;85.20
17615;BME280;8926;49.720;6.576;2023-04-24T08:22:48;98906.22;;;10.18;83.67
17615;BME280;8926;49.720;6.576;2023-04-24T08:25:13;98910.22;;;10.37;84.38
17615;BME280;8926;49.720;6.576;2023-04-24T08:27:39;98909.97;;;10.65;83.80
17615;BME280;8926;49.720;6.576;2023-04-24T08:30:05;98923.50;;;10.83;82.99
17615;BME280;8926;49.720;6.576;2023-04-24T08:32:30;98915.72;;;10.94;83.04
17615;BME280;8926;49.720;6.576;2023-04-24T08:34:56;98920.09;;;10.94;81.87
17615;BME280;8926;49.720;6.576;2023-04-24T08:37:23;98916.34;;;10.98;81.03
17615;BME280;8926;49.720;6.576;2023-04-24T08:39:49;98919.13;;;10.83;81.22
17615;BME280;8926;49.720;6.576;2023-04-24T08:42:15;98919.13;;;10.83;80.87
17615;BME280;8926;49.720;6.576;2023-04-24T08:44:42;98922.16;;;10.77;81.29
17615;BME280;8926;49.720;6.576;2023-04-24T08:47:07;98932.72;;;10.76;80.93
17615;BME280;8926;49.720;6.576;2023-04-24T08:49:33;98927.28;;;10.66;80.69
17615;BME280;8926;49.720;6.576;2023-04-24T08:51:59;98938.19;;;10.60;81.74
17615;BME280;8926;49.720;6.576;2023-04-24T08:54:25;98947.81;;;10.60;81.42
17615;BME280;8926;49.720;6.576;2023-04-24T08:56:53;98940.50;;;10.39;81.71
17615;BME280;8926;49.720;6.576;2023-04-24T08:59:19;98946.88;;;10.35;82.85
17615;BME280;8926;49.720;6.576;2023-04-24T09:01:48;98952.00;;;10.37;82.88
17615;BME280;8926;49.720;6.576;2023-04-24T09:04:14;98945.75;;;10.39;82.50
17615;BME280;8926;49.720;6.576;2023-04-24T09:06:41;98953.13;;;10.45;83.08
17615;BME280;8926;49.720;6.576;2023-04-24T09:09:08;98959.91;;;10.48;82.99
17615;BME280;8926;49.720;6.576;2023-04-24T09:11:34;98959.03;;;10.73;81.88
17615;BME280;8926;49.720;6.576;2023-04-24T09:14:01;98964.25;;;10.85;80.29
17615;BME280;8926;49.720;6.576;2023-04-24T09:16:27;98965.72;;;10.90;80.18
17615;BME280;8926;49.720;6.576;2023-04-24T09:18:53;98963.38;;;10.98;80.58
17615;BME280;8926;49.720;6.576;2023-04-24T09:21:21;98963.16;;;11.01;80.12
17615;BME280;8926;49.720;6.576;2023-04-24T09:23:57;98971.44;;;10.95;79.99
17615;BME280;8926;49.720;6.576;2023-04-24T09:26:22;98977.59;;;10.94;79.99
17615;BME280;8926;49.720;6.576;2023-04-24T09:28:47;98983.25;;;11.00;80.76
17615;BME280;8926;49.720;6.576;2023-04-24T09:31:14;98978.84;;;11.01;78.72
17615;BME280;8926;49.720;6.576;2023-04-24T09:36:32;98983.84;;;11.04;79.70
17615;BME280;8926;49.720;6.576;2023-04-24T09:39:03;98988.03;;;11.06;78.60
17615;BME280;8926;49.720;6.576;2023-04-24T09:41:32;98985.72;;;11.14;79.50
17615;BME280;8926;49.720;6.576;2023-04-24T09:44:10;98987.78;;;11.22;78.50
17615;BME280;8926;49.720;6.576;2023-04-24T09:46:36;98997.59;;;11.31;78.50
17615;BME280;8926;49.720;6.576;2023-04-24T09:49:16;99003.00;;;11.41;78.82
17615;BME280;8926;49.720;6.576;2023-04-24T09:51:42;99006.50;;;11.52;78.16
17615;BME280;8926;49.720;6.576;2023-04-24T09:54:14;98998.00;;;11.73;78.46
17615;BME280;8926;49.720;6.576;2023-04-24T09:56:45;99010.59;;;12.15;77.92
17615;BME280;8926;49.720;6.576;2023-04-24T09:59:11;99000.63;;;12.32;77.21
17615;BME280;8926;49.720;6.576;2023-04-24T10:01:37;98999.09;;;12.40;76.63
17615;BME280;8926;49.720;6.576;2023-04-24T10:04:03;99008.38;;;12.44;75.36
17615;BME280;8926;49.720;6.576;2023-04-24T10:06:35;99002.09;;;12.58;75.28
17615;BME280;8926;49.720;6.576;2023-04-24T10:09:01;99001.63;;;12.64;74.60
17615;BME280;8926;49.720;6.576;2023-04-24T10:11:27;99004.59;;;12.71;74.37
17615;BME280;8926;49.720;6.576;2023-04-24T10:13:53;99004.72;;;12.91;73.46
17615;BME280;8926;49.720;6.576;2023-04-24T10:16:20;99007.31;;;13.03;72.85
17615;BME280;8926;49.720;6.576;2023-04-24T10:18:48;99008.75;;;13.07;72.75
17615;BME280;8926;49.720;6.576;2023-04-24T10:21:14;99015.06;;;13.04;70.50
17615;BME280;8926;49.720;6.576;2023-04-24T10:23:41;99009.94;;;13.03;69.99
17615;BME280;8926;49.720;6.576;2023-04-24T10:26:06;99026.75;;;12.89;68.10
17615;BME280;8926;49.720;6.576;2023-04-24T10:28:33;99022.81;;;13.06;67.68
17615;BME280;8926;49.720;6.576;2023-04-24T10:30:59;99011.84;;;13.12;67.87
17615;BME280;8926;49.720;6.576;2023-04-24T10:33:25;99013.28;;;13.05;66.04
17615;BME280;8926;49.720;6.576;2023-04-24T10:35:52;99026.88;;;12.99;65.68
17615;BME280;8926;49.720;6.576;2023-04-24T10:38:22;99028.06;;;13.06;65.57
17615;BME280;8926;49.720;6.576;2023-04-24T10:40:49;99031.28;;;13.09;65.38
17615;BME280;8926;49.720;6.576;2023-04-24T10:43:17;99038.31;;;13.09;65.60
17615;BME280;8926;49.720;6.576;2023-04-24T10:46:00;99046.66;;;13.03;65.84
17615;BME280;8926;49.720;6.576;2023-04-24T10:48:26;99044.88;;;12.92;65.12
17615;BME280;8926;49.720;6.576;2023-04-24T10:50:52;99048.44;;;12.91;66.70
17615;BME280;8926;49.720;6.576;2023-04-24T10:53:22;99053.34;;;12.96;67.21
17615;BME280;8926;49.720;6.576;2023-04-24T10:56:06;99055.25;;;12.94;65.68
17615;BME280;8926;49.720;6.576;2023-04-24T10:58:42;99046.91;;;12.88;66.08
17615;BME280;8926;49.720;6.576;2023-04-24T11:01:31;99055.72;;;12.87;66.43
17615;BME280;8926;49.720;6.576;2023-04-24T11:03:59;99058.09;;;13.02;66.77
17615;BME280;8926;49.720;6.576;2023-04-24T11:06:29;99055.47;;;13.13;68.01
17615;BME280;8926;49.720;6.576;2023-04-24T11:09:05;99057.88;;;13.27;67.28
17615;BME280;8926;49.720;6.576;2023-04-24T11:11:32;99063.59;;;13.32;66.43
17615;BME280;8926;49.720;6.576;2023-04-24T11:18:52;99071.81;;;13.05;63.43
17615;BME280;8926;49.720;6.576;2023-04-24T11:21:24;99076.94;;;13.07;64.01
17615;BME280;8926;49.720;6.576;2023-04-24T11:23:50;99080.72;;;13.03;64.11
17615;BME280;8926;49.720;6.576;2023-04-24T11:26:21;99085.75;;;13.06;63.36
17615;BME280;8926;49.720;6.576;2023-04-24T11:28:50;99086.81;;;13.03;62.33
17615;BME280;8926;49.720;6.576;2023-04-24T11:31:54;99081.94;;;13.10;61.81
17615;BME280;8926;49.720;6.576;2023-04-24T11:34:20;99083.38;;;13.14;62.46
17615;BME280;8926;49.720;6.576;2023-04-24T11:36:46;99086.94;;;13.13;62.15
17615;BME280;8926;49.720;6.576;2023-04-24T11:39:13;99088.19;;;13.20;63.04
17615;BME280;8926;49.720;6.576;2023-04-24T11:41:38;99087.69;;;13.26;62.04
17615;BME280;8926;49.720;6.576;2023-04-24T11:44:08;99075.03;;;13.31;61.31
17615;BME280;8926;49.720;6.576;2023-04-24T11:46:34;99091.28;;;13.25;61.44
17615;BME280;8926;49.720;6.576;2023-04-24T11:48:59;99091.25;;;13.36;61.84
17615;BME280;8926;49.720;6.576;2023-04-24T11:51:26;99082.91;;;13.31;61.68
17615;BME280;8926;49.720;6.576;2023-04-24T11:53:56;99092.69;;;13.29;61.36
17615;BME280;8926;49.720;6.576;2023-04-24T11:56:22;99088.41;;;13.17;61.36
17615;BME280;8926;49.720;6.576;2023-04-24T11:58:48;99092.53;;;13.08;61.97
17615;BME280;8926;49.720;6.576;2023-04-24T12:01:17;99092.00;;;13.16;62.48
17615;BME280;8926;49.720;6.576;2023-04-24T12:03:47;99101.00;;;13.12;62.11
17615;BME280;8926;49.720;6.576;2023-04-24T12:06:12;99100.28;;;13.10;62.44
17615;BME280;8926;49.720;6.576;2023-04-24T12:08:38;99105.06;;;13.05;63.02
17615;BME280;8926;49.720;6.576;2023-04-24T12:11:05;99103.38;;;13.04;62.95
17615;BME280;8926;49.720;6.576;2023-04-24T12:13:32;99101.94;;;13.00;62.61
17615;BME280;8926;49.720;6.576;2023-04-24T12:15:58;99117.22;;;13.06;62.40
17615;BME280;8926;49.720;6.576;2023-04-24T12:18:24;99110.53;;;13.02;62.45
17615;BME280;8926;49.720;6.576;2023-04-24T12:20:49;99105.28;;;13.02;62.05
17615;BME280;8926;49.720;6.576;2023-04-24T12:23:15;99116.50;;;13.15;62.34
17615;BME280;8926;49.720;6.576;2023-04-24T12:25:40;99100.31;;;13.32;61.51
17615;BME280;8926;49.720;6.576;2023-04-24T12:30:33;99088.91;;;14.19;59.75
17615;BME280;8926;49.720;6.576;2023-04-24T12:33:00;99086.75;;;14.24;60.11
17615;BME280;8926;49.720;6.576;2023-04-24T12:35:31;99087.38;;;14.38;59.24
17615;BME280;8926;49.720;6.576;2023-04-24T12:38:08;99091.66;;;14.50;58.04
17615;BME280;8926;49.720;6.576;2023-04-24T12:40:33;99093.59;;;14.48;58.40
17615;BME280;8926;49.720;6.576;2023-04-24T12:42:59;99087.31;;;14.28;57.75
17615;BME280;8926;49.720;6.576;2023-04-24T12:45:24;99087.63;;;14.35;59.00
17615;BME280;8926;49.720;6.576;2023-04-24T12:47:50;99098.47;;;14.20;57.79
17615;BME280;8926;49.720;6.576;2023-04-24T12:50:16;99101.91;;;14.21;58.64
17615;BME280;8926;49.720;6.576;2023-04-24T12:52:42;99097.41;;;14.12;58.07
17615;BME280;8926;49.720;6.576;2023-04-24T12:55:08;99095.72;;;14.11;57.80
17615;BME280;8926;49.720;6.576;2023-04-24T12:57:35;99094.16;;;14.19;58.03
17615;BME280;8926;49.720;6.576;2023-04-24T13:00:01;99096.09;;;14.38;58.92
17615;BME280;8926;49.720;6.576;2023-04-24T13:02:30;99094.16;;;14.51;57.51
17615;BME280;8926;49.720;6.576;2023-04-24T13:04:56;99094.47;;;14.58;57.18
17615;BME280;8926;49.720;6.576;2023-04-24T13:07:22;99096.84;;;14.61;58.18
17615;BME280;8926;49.720;6.576;2023-04-24T13:09:48;99093.97;;;14.64;56.83
17615;BME280;8926;49.720;6.576;2023-04-24T13:12:14;99099.72;;;14.58;56.11
17615;BME280;8926;49.720;6.576;2023-04-24T13:14:40;99089.19;;;14.58;56.55
17615;BME280;8926;49.720;6.576;2023-04-24T13:17:06;99095.97;;;14.51;56.37
17615;BME280;8926;49.720;6.576;2023-04-24T13:19:36;99093.63;;;14.57;55.93